Columbia, Illinois
Current Conditions -  °F | °C
As of 1:53 AM on Wednesday 22 Oct 2014 (Local Time) from KCPS Reporting Station
Clear Clear  
Wind Chill: 47°   Ceiling: Unl
Heat Index: 47°   Visibility: 10mi
Dew Point: 41°   Wind: 3mph
Humidity: 80%   Direction: 50°NE
Pressure: 30.23"   Gusts: NA
Location:  38.44°N, 90.2°W
Report Text: KCPS 220653Z AUTO 05003KT 10SM CLR 08/05 A3023 RMK AO2 SLP235 T00830050
Loading
Personal Weather Stations






























Interactive Weather Map
Tropical Storm Tracking
New forecast layout! Learn more

10-Day Weather Forecast

Advertisements
Track Severe Weather on mobile